Time;durP1;ratioP1;P1;durP2;ratioP2;P2;SDS_P1;SDS_P2;PMS_P1;PMS_P2;Temp;Humidity;BMP_temperature;BMP_pressure;BME280_temperature;BME280_humidity;BME280_pressure;Samples;Min_cycle;Max_cycle;Signal;HPM_P1;HPM_P2
2024/02/14 00:03:27;;;;;;;1.60;1.00;;;;;;;6.08;87.64;98584.27;102610;1292;600047;-23
2024/02/14 00:05:57;;;;;;;1.50;1.00;;;;;;;6.48;85.10;98585.63;104755;1271;61169;-25
2024/02/14 00:08:25;;;;;;;1.50;1.10;;;;;;;6.02;86.36;98583.33;104804;1269;61133;-26
2024/02/14 00:10:53;;;;;;;1.50;1.00;;;;;;;5.72;88.14;98590.51;104814;1272;72083;-25
2024/02/14 00:21:01;;;;;;;0.30;0.30;;;;;;;5.85;86.21;98592.88;102702;1295;598641;-23
2024/02/14 00:23:29;;;;;;;0.60;0.50;;;;;;;5.92;85.91;98597.76;104826;1268;61677;-23
2024/02/14 00:25:57;;;;;;;1.90;1.20;;;;;;;6.09;85.06;98599.22;104862;1270;61116;-24
2024/02/14 00:28:26;;;;;;;1.10;1.00;;;;;;;6.01;84.65;98596.96;104861;1272;71039;-24
2024/02/14 00:38:30;;;;;;;0.30;0.30;;;;;;;5.68;86.30;98604.90;102756;1294;598617;-24
2024/02/14 00:48:34;;;;;;;0.60;0.60;;;;;;;5.70;86.49;98615.44;102701;1295;599343;-24
2024/02/14 00:58:38;;;;;;;1.80;1.00;;;;;;;6.01;84.65;98623.73;102632;1294;599134;-23
2024/02/14 01:01:06;;;;;;;1.00;0.70;;;;;;;5.41;86.44;98628.06;104906;1270;61175;-26
2024/02/14 01:03:34;;;;;;;0.90;0.80;;;;;;;5.49;86.79;98629.59;104767;1272;61105;-27
2024/02/14 01:06:02;;;;;;;0.60;0.60;;;;;;;5.40;86.57;98621.59;104684;1274;72235;-26
2024/02/14 01:16:07;;;;;;;0.70;0.70;;;;;;;5.57;84.83;98623.38;102739;1294;600059;-24
2024/02/14 01:26:01;;;;;;;1.60;0.70;;;;;;;5.19;86.21;98625.77;102773;1295;600184;-24
2024/02/14 01:28:30;;;;;;;1.10;0.90;;;;;;;4.68;88.59;98629.02;104875;1266;61190;-24
2024/02/14 01:30:57;;;;;;;1.10;0.80;;;;;;;5.39;85.82;98626.31;104826;1266;61138;-24
2024/02/14 01:33:25;;;;;;;0.90;0.80;;;;;;;5.26;85.11;98626.97;105101;1266;70936;-23
2024/02/14 01:43:34;;;;;;;1.00;0.90;;;;;;;5.71;83.01;98640.70;102746;1290;598685;-24
2024/02/14 01:46:05;;;;;;;1.10;0.80;;;;;;;5.43;83.32;98637.75;105040;1265;61072;-24
2024/02/14 01:48:36;;;;;;;0.90;0.70;;;;;;;5.05;84.90;98635.96;104819;1272;61215;-24
2024/02/14 01:51:04;;;;;;;1.20;1.00;;;;;;;5.15;84.83;98636.33;104728;1266;72346;-24
2024/02/14 01:53:32;;;;;;;1.30;1.00;;;;;;;4.90;85.90;98631.73;104888;1270;73169;-24
2024/02/14 01:56:00;;;;;;;0.80;0.70;;;;;;;4.91;85.94;98644.02;105229;1256;71462;-24
2024/02/14 01:58:28;;;;;;;1.50;1.20;;;;;;;4.87;85.48;98643.79;105318;1262;61170;-23
2024/02/14 02:00:58;;;;;;;2.30;1.10;;;;;;;4.49;87.85;98645.52;105956;1253;61097;-23
2024/02/14 02:03:27;;;;;;;4.40;0.80;;;;;;;4.72;86.96;98643.91;105734;1251;72233;-24
2024/02/14 02:05:55;;;;;;;3.10;1.10;;;;;;;4.54;86.90;98642.82;105859;1256;72566;-24
2024/02/14 02:16:04;;;;;;;1.00;0.90;;;;;;;4.94;85.22;98650.56;102686;1295;600189;-24
2024/02/14 02:18:32;;;;;;;0.90;0.80;;;;;;;4.71;84.81;98649.42;104770;1267;61011;-24
2024/02/14 02:21:03;;;;;;;1.00;0.70;;;;;;;4.48;86.05;98654.86;104830;1273;61253;-25
2024/02/14 02:23:33;;;;;;;0.70;0.50;;;;;;;4.52;87.03;98657.50;104792;1273;72206;-25
2024/02/14 02:26:02;;;;;;;1.00;0.80;;;;;;;5.08;83.80;98661.04;104763;1274;74440;-25
2024/02/14 02:28:30;;;;;;;0.80;0.80;;;;;;;4.75;84.47;98660.23;104650;1274;154521;-26
2024/02/14 02:30:58;;;;;;;1.90;0.70;;;;;;;4.31;86.32;98662.95;104820;1270;61717;-25
2024/02/14 02:41:00;;;;;;;0.80;0.70;;;;;;;4.36;85.87;98672.23;102866;1289;599054;-23
2024/02/14 02:43:28;;;;;;;0.90;0.60;;;;;;;4.36;84.97;98671.21;104875;1267;61055;-24
2024/02/14 02:45:57;;;;;;;1.10;0.60;;;;;;;4.24;86.23;98680.19;104862;1267;61173;-23
2024/02/14 02:48:25;;;;;;;1.70;0.70;;;;;;;4.83;83.86;98681.00;104853;1268;70993;-23
2024/02/14 02:50:54;;;;;;;0.90;0.70;;;;;;;4.78;83.42;98684.09;104858;1266;74339;-28
2024/02/14 02:53:21;;;;;;;0.60;0.60;;;;;;;4.44;85.35;98682.95;104862;1267;72664;-29
2024/02/14 02:55:51;;;;;;;1.80;0.90;;;;;;;4.23;85.23;98683.16;104996;1264;201042;-24
2024/02/14 02:58:21;;;;;;;0.80;0.70;;;;;;;4.03;86.58;98684.73;104987;1263;61043;-28
2024/02/14 03:00:53;;;;;;;1.40;0.60;;;;;;;4.35;84.49;98692.05;105136;1269;72198;-27
2024/02/14 03:11:15;;;;;;;0.70;0.70;;;;;;;4.22;85.08;98707.47;102698;1292;600210;-25
2024/02/14 03:13:44;;;;;;;0.70;0.70;;;;;;;4.58;82.96;98707.33;104864;1266;61175;-26
2024/02/14 03:16:12;;;;;;;1.10;1.00;;;;;;;4.15;84.55;98710.77;104843;1266;61083;-25
2024/02/14 03:26:19;;;;;;;1.10;1.00;;;;;;;4.00;85.48;98721.81;102738;1294;598924;-23
2024/02/14 03:28:48;;;;;;;0.90;0.80;;;;;;;3.95;85.19;98725.70;105045;1268;61079;-23
2024/02/14 03:31:16;;;;;;;0.80;0.70;;;;;;;3.83;85.88;98727.62;104847;1269;61142;-23
2024/02/14 03:40:20;;;;;;;1.00;0.90;;;;;;;3.95;84.67;98736.90;102721;1293;600026;-23
2024/02/14 03:42:48;;;;;;;0.90;0.60;;;;;;;3.75;85.41;98740.98;105084;1267;61147;-23
2024/02/14 03:45:16;;;;;;;0.70;0.70;;;;;;;3.96;84.96;98741.66;104817;1272;61161;-23
2024/02/14 03:47:43;;;;;;;2.30;1.40;;;;;;;4.11;83.90;98740.63;105043;1269;72192;-23
2024/02/14 03:50:11;;;;;;;1.10;1.00;;;;;;;3.92;83.56;98736.36;104894;1269;74254;-23
2024/02/14 03:52:39;;;;;;;0.70;0.70;;;;;;;3.85;84.52;98750.85;104835;1272;71619;-23
2024/02/14 03:55:08;;;;;;;0.80;0.80;;;;;;;3.72;85.60;98756.61;105037;1267;162380;-23
2024/02/14 03:57:38;;;;;;;0.50;0.50;;;;;;;3.90;84.76;98754.21;105029;1267;61068;-24
2024/02/14 04:00:10;;;;;;;2.40;1.30;;;;;;;3.75;84.65;98755.88;105115;1267;72237;-23
2024/02/14 04:02:39;;;;;;;1.20;1.10;;;;;;;3.76;84.64;98756.20;104940;1269;73077;-24
2024/02/14 04:05:08;;;;;;;1.60;1.50;;;;;;;3.84;84.85;98764.83;105150;1268;72763;-23
2024/02/14 04:07:37;;;;;;;0.80;0.80;;;;;;;3.97;84.05;98767.87;105118;1269;61224;-23
2024/02/14 04:10:06;;;;;;;0.60;0.60;;;;;;;4.08;83.16;98769.09;105179;1268;61724;-23
2024/02/14 04:12:34;;;;;;;2.10;0.70;;;;;;;3.96;83.35;98769.30;104888;1271;71789;-25
2024/02/14 04:15:03;;;;;;;0.60;0.60;;;;;;;3.69;84.28;98771.02;105070;1277;73593;-23
2024/02/14 04:17:31;;;;;;;0.80;0.60;;;;;;;3.57;85.57;98784.06;104847;1270;72704;-24
2024/02/14 04:19:59;;;;;;;0.70;0.60;;;;;;;4.01;83.89;98782.23;105104;1263;61130;-23
2024/02/14 04:22:27;;;;;;;0.60;0.60;;;;;;;3.79;84.13;98789.69;104980;1269;61091;-25
2024/02/14 04:24:56;;;;;;;0.60;0.60;;;;;;;3.47;85.45;98788.73;104904;1268;73071;-26
2024/02/14 04:27:24;;;;;;;2.00;0.50;;;;;;;3.49;85.38;98786.38;104779;1271;74329;-26
2024/02/14 04:29:51;;;;;;;0.60;0.60;;;;;;;3.42;86.55;98798.45;104880;1269;71489;-26
2024/02/14 04:32:19;;;;;;;0.70;0.70;;;;;;;3.95;83.50;98790.46;104821;1263;61092;-26
2024/02/14 04:34:48;;;;;;;1.20;0.70;;;;;;;3.81;83.90;98801.09;104769;1269;61061;-26
2024/02/14 04:37:18;;;;;;;1.10;0.50;;;;;;;3.93;82.95;98803.66;104938;1264;73060;-26
2024/02/14 04:47:22;;;;;;;0.60;0.60;;;;;;;3.23;85.64;98813.41;102638;1296;599338;-23
2024/02/14 04:49:51;;;;;;;1.10;0.70;;;;;;;3.30;85.53;98815.55;104839;1273;61075;-23
2024/02/14 04:52:19;;;;;;;0.70;0.60;;;;;;;3.39;85.16;98820.45;104862;1271;61133;-23
2024/02/14 04:54:47;;;;;;;0.80;0.70;;;;;;;3.56;84.76;98823.27;104843;1272;70948;-24
2024/02/14 04:57:15;;;;;;;0.70;0.70;;;;;;;3.09;86.04;98825.96;104801;1271;73853;-23
2024/02/14 05:07:22;;;;;;;0.40;0.40;;;;;;;3.18;86.82;98835.94;102663;1292;599361;-26
2024/02/14 05:09:52;;;;;;;0.50;0.50;;;;;;;3.02;86.56;98841.10;105020;1267;61194;-26
2024/02/14 05:12:20;;;;;;;1.40;0.90;;;;;;;2.86;87.37;98842.85;104858;1267;61106;-26
2024/02/14 05:22:27;;;;;;;0.80;0.70;;;;;;;3.60;83.83;98853.08;102811;1290;599512;-26
2024/02/14 05:32:33;;;;;;;0.70;0.60;;;;;;;3.06;86.26;98866.09;103168;1286;600113;-24
2024/02/14 05:35:01;;;;;;;1.50;1.00;;;;;;;3.17;86.50;98870.33;105079;1269;61199;-23
2024/02/14 05:37:29;;;;;;;1.10;0.80;;;;;;;3.06;86.23;98871.27;105074;1269;61288;-25
2024/02/14 05:39:57;;;;;;;1.90;1.20;;;;;;;2.84;87.21;98874.14;104805;1267;70946;-25
2024/02/14 05:42:25;;;;;;;1.40;1.00;;;;;;;3.06;87.10;98877.57;104848;1267;74274;-26
2024/02/14 05:44:53;;;;;;;1.30;0.90;;;;;;;3.41;85.58;98880.55;105008;1267;72652;-28
2024/02/14 05:47:21;;;;;;;1.80;1.00;;;;;;;3.29;84.60;98883.60;104834;1264;224837;-26
2024/02/14 05:49:48;;;;;;;0.70;0.70;;;;;;;3.14;85.35;98883.88;104872;1264;61047;-28
2024/02/14 05:52:18;;;;;;;4.80;1.30;;;;;;;3.06;85.98;98886.66;104986;1264;72193;-26
2024/02/14 05:54:46;;;;;;;1.10;1.00;;;;;;;3.12;85.71;98885.21;104920;1271;74526;-26
2024/02/14 05:57:14;;;;;;;1.40;1.20;;;;;;;3.51;83.61;98889.08;105065;1263;72645;-28
2024/02/14 06:07:18;;;;;;;1.60;1.40;;;;;;;3.19;85.03;98894.91;102707;1294;599462;-26
2024/02/14 06:09:46;;;;;;;1.60;1.10;;;;;;;3.11;84.17;98893.46;105038;1267;61104;-27
2024/02/14 06:19:51;;;;;;;3.00;1.90;;;;;;;3.07;85.71;98896.80;102767;1293;600106;-28
2024/02/14 06:22:20;;;;;;;3.20;2.10;;;;;;;3.19;84.35;98896.85;105592;1261;61110;-30
2024/02/14 06:24:51;;;;;;;2.00;1.80;;;;;;;2.81;85.80;98898.59;105458;1257;61103;-29
2024/02/14 06:27:19;;;;;;;2.50;1.60;;;;;;;2.63;87.29;98901.62;105292;1269;71033;-29
2024/02/14 06:29:48;;;;;;;3.60;2.30;;;;;;;2.91;86.27;98903.77;105538;1263;73182;-27
2024/02/14 06:32:16;;;;;;;2.10;1.50;;;;;;;2.94;86.07;98902.77;105513;1258;73095;-27
2024/02/14 06:34:44;;;;;;;3.00;1.70;;;;;;;3.19;84.53;98904.37;105388;1260;61175;-27
2024/02/14 06:37:13;;;;;;;2.30;1.60;;;;;;;2.98;85.37;98911.66;105677;1257;61093;-30
2024/02/14 06:46:52;;;;;;;3.50;1.70;;;;;;;3.19;85.89;98911.25;102770;1295;600920;-29
2024/02/14 06:49:20;;;;;;;2.30;1.90;;;;;;;3.03;85.51;98916.36;104893;1267;61206;-27
2024/02/14 06:51:48;;;;;;;2.70;1.50;;;;;;;2.80;87.52;98920.64;104932;1270;61144;-27
2024/02/14 06:54:19;;;;;;;1.80;1.30;;;;;;;3.52;84.26;98923.52;104843;1267;71830;-28
2024/02/14 06:56:48;;;;;;;2.70;1.40;;;;;;;3.13;85.19;98923.39;104902;1270;73234;-28
2024/02/14 06:59:16;;;;;;;1.30;1.10;;;;;;;3.32;84.54;98923.58;105089;1266;72658;-27
2024/02/14 07:01:45;;;;;;;2.40;1.50;;;;;;;3.05;85.74;98931.34;105057;1269;61199;-26
2024/02/14 07:04:15;;;;;;;1.90;1.00;;;;;;;2.98;86.25;98931.01;105038;1264;61119;-26
2024/02/14 07:14:19;;;;;;;1.20;1.00;;;;;;;2.75;87.39;98934.60;102738;1290;600259;-26
2024/02/14 07:16:47;;;;;;;2.10;1.50;;;;;;;2.99;86.27;98933.38;104975;1270;61226;-27
2024/02/14 07:19:16;;;;;;;1.30;1.20;;;;;;;3.15;85.22;98937.49;104895;1265;61105;-25
2024/02/14 07:21:44;;;;;;;1.90;1.40;;;;;;;3.11;85.49;98936.32;104942;1279;72259;-27
2024/02/14 07:24:12;;;;;;;4.50;2.90;;;;;;;2.95;86.22;98935.99;105120;1269;74249;-27
2024/02/14 07:26:43;;;;;;;1.60;1.30;;;;;;;2.83;87.67;98938.82;104950;1269;71398;-25
2024/02/14 07:29:14;;;;;;;1.30;1.20;;;;;;;3.13;85.83;98933.33;104911;1262;61115;-25
2024/02/14 07:31:44;;;;;;;1.60;1.20;;;;;;;3.22;85.96;98941.59;105265;1267;61209;-26
2024/02/14 07:41:48;;;;;;;3.40;1.60;;;;;;;3.15;86.60;98945.06;102764;1292;599941;-26
2024/02/14 07:44:17;;;;;;;2.70;1.30;;;;;;;3.18;85.98;98943.18;105135;1269;61166;-26
2024/02/14 07:46:45;;;;;;;1.90;1.40;;;;;;;2.91;87.27;98950.09;105566;1262;61101;-25
2024/02/14 07:49:12;;;;;;;3.60;2.10;;;;;;;3.01;86.93;98950.23;105489;1257;71018;-24
2024/02/14 07:59:20;;;;;;;2.60;2.00;;;;;;;3.31;86.07;98957.97;102771;1289;598689;-25
2024/02/14 08:01:48;;;;;;;3.00;1.80;;;;;;;3.05;87.30;98961.02;104877;1271;61143;-26
2024/02/14 08:04:16;;;;;;;4.70;2.60;;;;;;;3.24;87.33;98956.77;104893;1266;61748;-27
2024/02/14 08:06:50;;;;;;;2.50;1.70;;;;;;;3.18;86.71;98958.14;104852;1272;70085;-26
2024/02/14 08:09:20;;;;;;;1.70;1.20;;;;;;;3.57;85.07;98962.40;105244;1260;73018;-26
2024/02/14 08:11:48;;;;;;;1.60;1.20;;;;;;;3.25;85.73;98968.55;105118;1265;220707;-27
2024/02/14 08:14:16;;;;;;;3.20;1.60;;;;;;;3.41;85.73;98972.36;105438;1259;62211;-25
2024/02/14 08:16:44;;;;;;;2.30;1.50;;;;;;;4.00;83.19;98975.70;105318;1256;61154;-25
2024/02/14 08:19:12;;;;;;;2.00;1.40;;;;;;;3.53;84.48;98973.96;105466;1257;72219;-26
2024/02/14 08:21:41;;;;;;;2.90;1.70;;;;;;;3.44;84.90;98972.36;105492;1257;74304;-26
2024/02/14 08:24:09;;;;;;;2.00;1.60;;;;;;;3.36;85.23;98977.11;105452;1257;71301;-26
2024/02/14 08:26:37;;;;;;;1.50;1.20;;;;;;;3.23;86.32;98982.05;105475;1260;61065;-25
2024/02/14 08:29:05;;;;;;;1.70;1.00;;;;;;;3.97;83.04;98983.94;105386;1262;61151;-25
2024/02/14 08:31:33;;;;;;;1.40;1.00;;;;;;;3.60;83.85;98984.60;105216;1262;71667;-25
2024/02/14 08:34:01;;;;;;;2.60;1.80;;;;;;;3.41;84.82;98989.52;105487;1262;74447;-25
2024/02/14 08:36:29;;;;;;;2.60;1.40;;;;;;;3.23;85.95;98988.20;105439;1263;74222;-26
2024/02/14 08:38:58;;;;;;;1.30;0.90;;;;;;;3.42;84.51;98986.89;105395;1262;62835;-26
2024/02/14 08:41:26;;;;;;;1.10;0.80;;;;;;;3.45;84.12;98987.60;105357;1260;61696;-25
2024/02/14 08:43:54;;;;;;;1.50;1.00;;;;;;;3.38;84.42;98990.04;105393;1262;74769;-28
2024/02/14 08:46:23;;;;;;;2.20;1.40;;;;;;;3.19;85.36;98993.56;105267;1264;74717;-28
2024/02/14 08:56:27;;;;;;;1.90;1.20;;;;;;;3.54;83.51;99003.42;102695;1292;600183;-27
2024/02/14 08:58:55;;;;;;;0.90;0.80;;;;;;;2.92;85.42;99011.25;104860;1274;61238;-25
2024/02/14 09:01:23;;;;;;;0.80;0.60;;;;;;;3.09;85.27;99011.08;104892;1270;62784;-25
2024/02/14 09:03:51;;;;;;;0.60;0.60;;;;;;;3.30;83.92;99013.77;104804;1270;74057;-25
2024/02/14 09:06:21;;;;;;;0.80;0.60;;;;;;;3.34;83.39;99014.45;104776;1267;76790;-25
2024/02/14 09:08:52;;;;;;;1.30;1.00;;;;;;;3.33;83.95;99018.75;104778;1266;74278;-27
2024/02/14 09:11:22;;;;;;;1.80;1.20;;;;;;;3.16;84.11;99023.73;104778;1267;61212;-26
2024/02/14 09:13:55;;;;;;;1.30;0.80;;;;;;;3.13;84.49;99026.66;105053;1264;61160;-26
2024/02/14 09:16:23;;;;;;;1.60;1.40;;;;;;;3.03;84.49;99026.80;105192;1268;73577;-23
2024/02/14 09:18:51;;;;;;;1.40;0.90;;;;;;;3.27;84.01;99031.59;104961;1270;76204;-26
2024/02/14 09:21:20;;;;;;;2.20;1.10;;;;;;;3.09;84.50;99030.64;104873;1264;71424;-27
2024/02/14 09:23:48;;;;;;;1.40;0.90;;;;;;;3.17;84.15;99036.23;105125;1264;63715;-26
2024/02/14 09:26:19;;;;;;;1.20;1.10;;;;;;;3.29;83.48;99036.15;104925;1264;61144;-26
2024/02/14 09:28:47;;;;;;;1.60;1.00;;;;;;;3.66;81.54;99030.63;105081;1264;75567;-26
2024/02/14 09:31:19;;;;;;;1.20;1.10;;;;;;;3.27;83.34;99041.55;108738;1263;73184;-25
2024/02/14 09:33:48;;;;;;;1.60;1.30;;;;;;;3.05;84.27;99038.23;108670;1262;72663;-25
2024/02/14 09:36:16;;;;;;;0.90;0.80;;;;;;;2.89;85.27;99036.40;108712;1264;60794;-25
2024/02/14 09:38:44;;;;;;;3.50;2.00;;;;;;;3.60;82.17;99037.78;108784;1263;60036;-25
2024/02/14 09:41:18;;;;;;;1.10;1.00;;;;;;;3.04;83.48;99039.63;108858;1263;73532;-25
2024/02/14 09:43:46;;;;;;;1.20;0.90;;;;;;;3.02;84.20;99037.85;108737;1263;75574;-25
2024/02/14 09:46:14;;;;;;;4.70;2.60;;;;;;;2.94;84.98;99045.64;108786;1263;72788;-26
2024/02/14 09:48:45;;;;;;;2.50;1.40;;;;;;;2.89;86.27;99041.02;108744;1263;58936;-25
2024/02/14 09:51:13;;;;;;;2.80;1.90;;;;;;;3.16;84.69;99045.88;108621;1263;58809;-25
2024/02/14 09:53:42;;;;;;;1.90;1.00;;;;;;;2.95;84.45;99037.17;109105;1257;73132;-25
2024/02/14 09:56:10;;;;;;;4.20;2.50;;;;;;;3.00;85.05;99044.28;109366;1257;73679;-25
2024/02/14 09:58:40;;;;;;;3.90;2.00;;;;;;;2.78;86.75;99047.41;109265;1256;73679;-25
2024/02/14 10:01:08;;;;;;;4.00;2.20;;;;;;;3.11;85.67;99046.66;109074;1257;61487;-25
2024/02/14 10:03:36;;;;;;;4.60;2.00;;;;;;;3.51;83.16;99044.63;109090;1257;62341;-26
2024/02/14 10:06:04;;;;;;;9.00;3.80;;;;;;;3.28;83.83;99053.33;109169;1256;75246;-26
2024/02/14 10:08:32;;;;;;;7.80;4.20;;;;;;;3.23;84.42;99056.35;109167;1256;76699;-25
2024/02/14 10:11:04;;;;;;;4.30;2.30;;;;;;;2.98;85.00;99048.14;109166;1256;71404;-26
2024/02/14 10:13:31;;;;;;;3.20;2.10;;;;;;;2.92;85.92;99050.17;109167;1257;59014;-25
2024/02/14 10:15:59;;;;;;;4.40;2.70;;;;;;;3.50;83.43;99052.74;109089;1256;61107;-25
2024/02/14 10:18:27;;;;;;;3.00;1.60;;;;;;;3.20;84.17;99053.39;109059;1256;75315;-25
2024/02/14 10:20:58;;;;;;;1.80;1.40;;;;;;;3.17;84.19;99056.66;109189;1256;76779;-25
2024/02/14 10:23:29;;;;;;;3.60;2.40;;;;;;;3.11;84.78;99052.96;109021;1256;75198;-26
2024/02/14 10:25:57;;;;;;;3.40;2.10;;;;;;;3.24;84.21;99054.07;109171;1256;61566;-26
2024/02/14 10:28:25;;;;;;;0.90;0.70;;;;;;;3.56;83.37;99055.86;109126;1256;61943;-26
2024/02/14 10:31:05;;;;;;;3.20;1.90;;;;;;;3.68;81.97;99056.79;109181;1256;75278;-26
2024/02/14 10:33:33;;;;;;;1.80;1.30;;;;;;;3.20;83.45;99059.05;109148;1256;74333;-26
2024/02/14 10:36:02;;;;;;;2.80;1.80;;;;;;;3.14;84.01;99066.05;109107;1256;74933;-26
2024/02/14 10:38:32;;;;;;;0.80;0.70;;;;;;;3.00;84.54;99062.95;108944;1256;63240;-26
2024/02/14 10:41:00;;;;;;;1.40;1.10;;;;;;;3.67;82.09;99064.70;109077;1257;62339;-26
2024/02/14 10:43:29;;;;;;;1.60;1.00;;;;;;;3.46;82.07;99066.33;108988;1256;72269;-26
2024/02/14 10:45:59;;;;;;;1.70;1.40;;;;;;;3.41;82.23;99067.77;109185;1256;76561;-26
2024/02/14 10:48:29;;;;;;;4.10;2.20;;;;;;;3.19;83.47;99070.95;109045;1256;74892;-25
2024/02/14 10:50:57;;;;;;;2.10;1.60;;;;;;;3.11;84.35;99069.66;108992;1257;61657;-27
2024/02/14 10:53:25;;;;;;;5.30;1.80;;;;;;;3.10;83.22;99066.45;109042;1256;61143;-26
2024/02/14 10:55:53;;;;;;;1.90;1.40;;;;;;;2.93;83.85;99068.48;109095;1256;73745;-26
2024/02/14 10:58:21;;;;;;;1.90;1.40;;;;;;;2.92;83.71;99073.11;109180;1256;76633;-26
2024/02/14 11:00:49;;;;;;;3.20;1.80;;;;;;;2.83;84.05;99077.17;109159;1257;75025;-26
2024/02/14 11:03:17;;;;;;;1.00;0.80;;;;;;;2.85;85.34;99080.02;109106;1257;61913;-26
2024/02/14 11:05:46;;;;;;;2.80;1.20;;;;;;;3.12;83.27;99073.90;109033;1256;61898;-26
2024/02/14 11:08:25;;;;;;;3.70;0.80;;;;;;;3.30;82.60;99081.23;109048;1256;73163;-26
2024/02/14 11:10:54;;;;;;;1.30;0.80;;;;;;;3.23;82.40;99080.17;109109;1256;76691;-26
2024/02/14 11:13:27;;;;;;;3.60;2.10;;;;;;;2.80;83.87;99079.20;109016;1257;75092;-26
2024/02/14 11:15:57;;;;;;;1.40;1.10;;;;;;;2.88;83.92;99078.15;108981;1256;63203;-26
2024/02/14 11:18:31;;;;;;;3.50;2.40;;;;;;;3.28;82.48;99081.30;108914;1256;62306;-26
2024/02/14 11:21:02;;;;;;;3.20;2.20;;;;;;;2.74;83.97;99079.02;109021;1256;75333;-26
2024/02/14 11:23:31;;;;;;;3.10;1.90;;;;;;;2.61;84.73;99084.61;109104;1256;75763;-26
2024/02/14 11:26:02;;;;;;;3.50;2.10;;;;;;;2.51;85.43;99082.16;109088;1256;73336;-26
2024/02/14 11:28:31;;;;;;;4.20;2.40;;;;;;;2.80;84.72;99088.96;108937;1257;61654;-27
2024/02/14 11:31:01;;;;;;;5.90;3.00;;;;;;;2.81;84.53;99091.31;109147;1256;62395;-26
2024/02/14 11:33:28;;;;;;;1.90;1.70;;;;;;;2.98;83.66;99091.72;108975;1256;72381;-26
2024/02/14 11:35:58;;;;;;;2.00;1.40;;;;;;;2.83;84.07;99092.11;109142;1256;76720;-26
2024/02/14 11:38:26;;;;;;;1.50;1.10;;;;;;;2.56;85.00;99087.90;109121;1256;74766;-26
2024/02/14 11:40:56;;;;;;;1.80;1.10;;;;;;;2.62;85.59;99094.48;109085;1256;59025;-27
2024/02/14 11:43:25;;;;;;;2.90;2.10;;;;;;;3.03;83.24;99096.60;109009;1257;60824;-26
2024/02/14 11:45:52;;;;;;;3.40;2.20;;;;;;;3.10;83.09;99098.84;109100;1256;74266;-26
2024/02/14 11:48:21;;;;;;;1.20;1.10;;;;;;;3.08;83.27;99094.64;109139;1256;76626;-26
2024/02/14 11:50:50;;;;;;;1.20;1.10;;;;;;;2.87;83.74;99093.09;108913;1256;74927;-26
2024/02/14 11:53:21;;;;;;;1.20;1.10;;;;;;;3.18;83.61;99100.02;108951;1256;59352;-26
2024/02/14 11:55:49;;;;;;;1.90;1.10;;;;;;;3.14;82.62;99096.78;109097;1256;60704;-26
2024/02/14 11:58:17;;;;;;;2.00;1.40;;;;;;;3.11;82.00;99095.17;109134;1256;75229;-26
2024/02/14 12:00:46;;;;;;;2.20;1.60;;;;;;;3.06;82.75;99100.93;109040;1256;74048;-26
2024/02/14 12:03:22;;;;;;;1.70;1.20;;;;;;;2.53;85.10;99100.21;109013;1256;72560;-26
2024/02/14 12:05:51;;;;;;;1.20;1.10;;;;;;;2.91;84.55;99105.11;108954;1256;59598;-26
2024/02/14 12:08:19;;;;;;;2.00;1.40;;;;;;;3.19;82.75;99102.50;108977;1256;61122;-26
2024/02/14 12:10:49;;;;;;;2.50;2.10;;;;;;;3.23;82.47;99101.83;109127;1257;75351;-26
2024/02/14 12:13:20;;;;;;;1.50;1.30;;;;;;;2.63;84.61;99100.29;109150;1256;76582;-26
2024/02/14 12:15:50;;;;;;;1.80;0.90;;;;;;;2.93;83.92;99104.81;108967;1256;72498;-26
2024/02/14 12:18:19;;;;;;;1.10;1.00;;;;;;;3.01;83.69;99105.62;108957;1256;59907;-26
2024/02/14 12:20:49;;;;;;;1.60;1.20;;;;;;;3.21;82.31;99103.81;108923;1256;59565;-26
2024/02/14 12:23:22;;;;;;;;;;;;;;;2.88;83.70;99108.85;109082;1256;73286;-26
2024/02/14 12:25:50;;;;;;;1.40;1.00;;;;;;;2.73;84.67;99109.76;109116;1256;75561;-26
2024/02/14 12:28:18;;;;;;;1.50;0.90;;;;;;;2.95;84.17;99110.92;109111;1256;73708;-26
2024/02/14 12:30:57;;;;;;;1.60;1.00;;;;;;;3.31;82.79;99111.34;108921;1256;58918;-26
2024/02/14 12:33:25;;;;;;;1.20;1.10;;;;;;;3.15;83.05;99114.92;109011;1256;61048;-26
2024/02/14 12:35:54;;;;;;;1.30;1.00;;;;;;;3.36;82.12;99117.83;109113;1256;75347;-26
2024/02/14 12:38:23;;;;;;;0.90;0.80;;;;;;;3.07;83.38;99117.55;109051;1256;76731;-26
2024/02/14 12:40:53;;;;;;;1.90;1.00;;;;;;;3.21;83.34;99126.98;109119;1256;74709;-26
2024/02/14 12:43:22;;;;;;;1.20;1.10;;;;;;;3.07;83.75;99128.17;109032;1256;61717;-26
2024/02/14 12:45:50;;;;;;;1.50;1.00;;;;;;;3.25;83.09;99123.31;109041;1256;59611;-26
2024/02/14 12:48:27;;;;;;;1.10;0.80;;;;;;;3.42;82.06;99122.84;109128;1256;75320;-26
2024/02/14 12:50:57;;;;;;;2.00;1.40;;;;;;;3.08;83.16;99123.80;108988;1257;76234;-26
2024/02/14 12:53:26;;;;;;;1.60;1.10;;;;;;;2.84;85.30;99128.55;108979;1256;73457;-26
2024/02/14 12:55:54;;;;;;;1.00;0.90;;;;;;;3.07;84.12;99129.20;109018;1256;61116;-28
2024/02/14 12:58:22;;;;;;;1.70;0.90;;;;;;;3.20;83.62;99131.96;109025;1256;60898;-26
2024/02/14 13:00:50;;;;;;;1.20;1.10;;;;;;;3.04;84.54;99135.52;109019;1256;72955;-26
2024/02/14 13:03:19;;;;;;;1.10;1.00;;;;;;;3.05;84.68;99140.10;109120;1257;75960;-26
2024/02/14 13:05:48;;;;;;;1.20;1.10;;;;;;;3.04;84.44;99139.27;108961;1257;73607;-27
2024/02/14 13:08:17;;;;;;;2.60;1.40;;;;;;;3.11;84.12;99138.09;108946;1257;60232;-26
2024/02/14 13:10:45;;;;;;;1.00;0.90;;;;;;;3.23;83.29;99143.88;108962;1257;62327;-26
2024/02/14 13:13:16;;;;;;;1.50;1.00;;;;;;;3.05;84.16;99144.56;109107;1257;76110;-26
2024/02/14 13:15:44;;;;;;;1.30;1.10;;;;;;;3.00;84.47;99147.38;109102;1257;76699;-26
2024/02/14 13:18:13;;;;;;;1.10;0.90;;;;;;;3.10;84.52;99152.71;108945;1257;73413;-26
2024/02/14 13:20:41;;;;;;;4.30;2.60;;;;;;;3.04;83.98;99151.84;108947;1257;62029;-26
2024/02/14 13:23:11;;;;;;;4.00;2.80;;;;;;;3.16;84.10;99158.45;109089;1257;61291;-26
2024/02/14 13:25:39;;;;;;;5.30;2.80;;;;;;;2.66;85.33;99156.48;109098;1257;76137;-26
2024/02/14 13:28:07;;;;;;;2.00;1.60;;;;;;;2.43;86.97;99163.89;109017;1257;75500;-26
2024/02/14 13:30:35;;;;;;;2.60;1.20;;;;;;;2.43;86.80;99162.22;109105;1257;74922;-26
2024/02/14 13:33:05;;;;;;;1.60;1.40;;;;;;;3.16;84.44;99163.60;109078;1259;60987;-26
2024/02/14 13:35:38;;;;;;;1.30;1.20;;;;;;;2.94;84.23;99163.79;109085;1257;62340;-27
2024/02/14 13:38:06;;;;;;;0.90;0.90;;;;;;;2.75;85.58;99169.66;109005;1257;74114;-27
2024/02/14 13:40:36;;;;;;;1.10;1.00;;;;;;;2.87;85.19;99168.39;109063;1257;75364;-26
2024/02/14 13:43:04;;;;;;;1.90;1.00;;;;;;;2.76;85.08;99166.16;109073;1258;73700;-26
2024/02/14 13:45:42;;;;;;;2.00;1.00;;;;;;;3.13;83.74;99166.95;109089;1257;60394;-27
2024/02/14 13:48:10;;;;;;;1.00;0.90;;;;;;;3.27;83.19;99175.39;108999;1257;62281;-27
2024/02/14 13:50:38;;;;;;;2.00;1.40;;;;;;;3.27;82.46;99178.85;109025;1257;74307;-27
2024/02/14 13:53:06;;;;;;;2.60;1.30;;;;;;;3.00;83.55;99183.56;109095;1257;76640;-27
2024/02/14 13:55:34;;;;;;;1.70;1.10;;;;;;;2.62;85.06;99187.71;109050;1257;74651;-27
2024/02/14 13:58:02;;;;;;;0.70;0.70;;;;;;;2.67;85.30;99190.05;108983;1259;60710;-27
2024/02/14 14:00:30;;;;;;;1.30;0.90;;;;;;;3.23;82.72;99188.30;109083;1257;62239;-28
2024/02/14 14:02:58;;;;;;;0.90;0.80;;;;;;;3.07;82.91;99192.31;109040;1257;74785;-27
2024/02/14 14:05:26;;;;;;;1.80;1.10;;;;;;;2.95;83.99;99196.48;109060;1257;75349;-27
2024/02/14 14:07:54;;;;;;;2.00;1.20;;;;;;;2.77;84.86;99202.48;108964;1257;74686;-27
2024/02/14 14:10:27;;;;;;;1.80;1.20;;;;;;;2.96;84.74;99203.80;109046;1257;58791;-26
2024/02/14 14:12:56;;;;;;;1.40;1.10;;;;;;;3.09;83.03;99201.98;108979;1257;59712;-26
2024/02/14 14:15:26;;;;;;;1.60;1.30;;;;;;;3.07;83.35;99206.88;109043;1257;76061;-25
2024/02/14 14:17:54;;;;;;;2.30;1.30;;;;;;;2.80;84.03;99205.20;109052;1257;76512;-25
2024/02/14 14:20:22;;;;;;;1.50;1.10;;;;;;;2.42;85.76;99209.55;109039;1257;73430;-25
2024/02/14 14:22:50;;;;;;;1.70;1.30;;;;;;;2.54;85.87;99221.00;109012;1259;60007;-25
2024/02/14 14:25:18;;;;;;;3.60;2.70;;;;;;;3.03;84.13;99218.55;108971;1257;60810;-25
2024/02/14 14:27:46;;;;;;;5.20;3.20;;;;;;;3.11;82.95;99219.04;109049;1257;74669;-25
2024/02/14 14:30:14;;;;;;;9.40;6.60;;;;;;;3.13;83.09;99225.98;109050;1257;73527;-25
2024/02/14 14:32:42;;;;;;;10.00;6.70;;;;;;;2.89;84.10;99225.91;109031;1259;74744;-25
2024/02/14 14:35:10;;;;;;;8.60;5.30;;;;;;;3.62;82.06;99228.25;108955;1257;59221;-25